Time;durP1;ratioP1;P1;durP2;ratioP2;P2;SDS_P1;SDS_P2;PMS_P1;PMS_P2;Temp;Humidity;BMP_temperature;BMP_pressure;BME280_temperature;BME280_humidity;BME280_pressure;Samples;Min_cycle;Max_cycle;Signal;HPM_P1;HPM_P2
2023/06/28 00:02:20;;;;;;;14.65;10.27;;;;;;;23.15;98.35;99070.38;5153086;27;20075;-83
2023/06/28 00:05:07;;;;;;;16.13;10.20;;;;;;;23.16;99.22;99066.63;5150182;27;20045;-83
2023/06/28 00:07:51;;;;;;;19.30;11.18;;;;;;;22.80;100.00;99045.44;5152243;27;20117;-83
2023/06/28 00:10:35;;;;;;;15.10;9.80;;;;;;;22.72;100.00;99046.00;5153177;27;20548;-84
2023/06/28 00:13:19;;;;;;;14.25;10.60;;;;;;;22.58;100.00;99046.59;5152558;27;20077;-82
2023/06/28 00:16:03;;;;;;;16.33;10.80;;;;;;;22.54;100.00;99040.19;5136522;27;20839;-83
2023/06/28 00:18:47;;;;;;;21.73;11.23;;;;;;;22.55;100.00;99041.78;5136767;27;20063;-82
2023/06/28 00:21:31;;;;;;;17.92;10.65;;;;;;;22.06;100.00;99046.72;5135141;27;20045;-82
2023/06/28 00:24:15;;;;;;;18.42;11.75;;;;;;;22.26;100.00;99045.06;5136471;27;20114;-81
2023/06/28 00:26:59;;;;;;;15.32;10.50;;;;;;;22.24;100.00;99050.69;5153068;27;20053;-82
2023/06/28 00:29:43;;;;;;;18.25;11.10;;;;;;;22.12;100.00;99044.84;5152554;27;20040;-82
2023/06/28 00:32:28;;;;;;;20.50;12.30;;;;;;;22.37;100.00;99054.66;5152284;27;20121;-83
2023/06/28 00:35:12;;;;;;;20.45;12.20;;;;;;;22.22;100.00;99046.69;5154080;27;20072;-84
2023/06/28 00:37:56;;;;;;;19.80;12.10;;;;;;;22.40;100.00;99048.78;5153412;27;20083;-82
2023/06/28 00:40:40;;;;;;;21.40;12.68;;;;;;;22.57;100.00;99046.88;5134739;27;20093;-82
2023/06/28 00:43:24;;;;;;;23.75;13.20;;;;;;;22.04;100.00;99058.75;5150538;27;20100;-82
2023/06/28 00:46:08;;;;;;;20.30;12.25;;;;;;;22.04;100.00;99062.25;5152965;27;20109;-83
2023/06/28 00:48:52;;;;;;;21.33;12.18;;;;;;;22.03;100.00;99063.31;5151882;27;20049;-83
2023/06/28 00:51:37;;;;;;;17.92;11.73;;;;;;;22.31;100.00;99053.06;5152305;27;20045;-84
2023/06/28 00:54:22;;;;;;;24.35;13.32;;;;;;;22.16;100.00;99059.28;5136500;27;20037;-83
2023/06/28 00:57:07;;;;;;;18.85;12.88;;;;;;;22.26;100.00;99061.91;5152395;27;20095;-84
2023/06/28 00:59:54;;;;;;;19.33;13.85;;;;;;;22.24;100.00;99042.66;5152370;27;20106;-83
2023/06/28 01:02:44;;;;;;;20.65;14.60;;;;;;;22.03;100.00;99047.28;5153433;27;20536;-82
2023/06/28 01:05:28;;;;;;;20.15;13.35;;;;;;;22.33;100.00;99061.63;5152484;27;20045;-82
2023/06/28 01:08:13;;;;;;;23.35;13.82;;;;;;;22.20;100.00;99060.31;5151207;27;20526;-82
2023/06/28 01:10:58;;;;;;;20.38;13.35;;;;;;;22.22;100.00;99049.38;5132010;27;20042;-82
2023/06/28 01:13:42;;;;;;;21.92;13.57;;;;;;;22.15;100.00;99048.84;5151847;27;20190;-82
2023/06/28 01:16:27;;;;;;;22.42;14.68;;;;;;;22.24;100.00;99052.56;5149156;27;20151;-82
2023/06/28 01:19:13;;;;;;;19.30;14.00;;;;;;;21.99;100.00;99048.88;5151759;27;20412;-81
2023/06/28 01:22:02;;;;;;;20.85;14.50;;;;;;;22.02;100.00;99045.69;5150650;27;20058;-82
2023/06/28 01:24:47;;;;;;;21.55;14.52;;;;;;;21.98;100.00;99049.94;5148605;27;20153;-82
2023/06/28 01:27:32;;;;;;;24.73;14.32;;;;;;;22.23;100.00;99053.66;5136605;27;20037;-83
2023/06/28 01:30:17;;;;;;;21.20;14.30;;;;;;;22.31;100.00;99041.59;5152312;27;20163;-83
2023/06/28 01:33:02;;;;;;;24.73;15.00;;;;;;;22.30;100.00;99051.47;5148646;27;20051;-84
2023/06/28 01:35:46;;;;;;;22.13;13.80;;;;;;;22.21;100.00;99042.44;5129045;27;20046;-83
2023/06/28 01:38:31;;;;;;;22.38;14.60;;;;;;;22.31;100.00;99046.94;5137588;27;20075;-84
2023/06/28 01:41:16;;;;;;;21.08;13.25;;;;;;;22.33;100.00;99044.78;5151635;27;20050;-83
2023/06/28 01:44:01;;;;;;;21.27;14.02;;;;;;;22.66;100.00;99042.53;5136136;27;20154;-83
2023/06/28 01:46:46;;;;;;;22.55;14.43;;;;;;;22.87;100.00;99037.91;5152622;27;20501;-83
2023/06/28 01:49:30;;;;;;;21.90;13.63;;;;;;;22.87;100.00;99047.78;5154739;27;20065;-82
2023/06/28 01:52:15;;;;;;;23.05;14.65;;;;;;;22.82;100.00;99037.94;5155340;27;20069;-82
2023/06/28 01:54:59;;;;;;;23.58;13.63;;;;;;;22.90;100.00;99042.69;5155605;27;20514;-83
2023/06/28 01:57:45;;;;;;;23.85;13.70;;;;;;;22.82;100.00;99040.59;5156341;27;20037;-84
2023/06/28 02:00:29;;;;;;;22.98;13.88;;;;;;;22.66;100.00;99038.00;5155196;27;20510;-82
2023/06/28 02:03:13;;;;;;;21.15;12.63;;;;;;;22.64;100.00;99040.16;5155525;27;20045;-83
2023/06/28 02:05:57;;;;;;;23.63;13.60;;;;;;;22.93;100.00;99044.81;5139815;27;20037;-83
2023/06/28 02:08:41;;;;;;;20.83;13.23;;;;;;;22.74;100.00;99044.66;5139750;27;20037;-83
2023/06/28 02:11:25;;;;;;;23.80;13.02;;;;;;;22.72;100.00;99038.78;5140891;27;20034;-83
2023/06/28 02:14:09;;;;;;;23.27;15.05;;;;;;;22.96;100.00;99041.56;5139884;27;20049;-84
2023/06/28 02:16:56;;;;;;;20.08;14.25;;;;;;;23.10;100.00;99041.78;5136701;27;20046;-83
2023/06/28 02:19:41;;;;;;;27.08;14.27;;;;;;;23.02;100.00;99038.88;5139621;27;20087;-83
2023/06/28 02:22:28;;;;;;;21.77;13.85;;;;;;;22.86;100.00;99028.25;5155425;27;20792;-83
2023/06/28 02:25:12;;;;;;;22.98;14.00;;;;;;;22.92;100.00;99043.22;5156737;27;20046;-81
2023/06/28 02:27:56;;;;;;;21.00;13.85;;;;;;;22.96;100.00;99040.78;5155708;27;20503;-83
2023/06/28 02:30:40;;;;;;;24.80;13.70;;;;;;;22.86;100.00;99046.19;5139518;27;20494;-81
2023/06/28 02:33:24;;;;;;;20.80;13.48;;;;;;;22.89;100.00;99051.78;5139223;27;20063;-81
2023/06/28 02:36:08;;;;;;;20.00;13.18;;;;;;;22.68;100.00;99043.06;5153319;27;20497;-82
2023/06/28 02:38:53;;;;;;;22.42;13.80;;;;;;;22.74;100.00;99046.50;5138918;27;20102;-82
2023/06/28 02:41:37;;;;;;;20.20;13.88;;;;;;;22.71;100.00;99033.69;5139209;27;20046;-82
2023/06/28 02:44:20;;;;;;;21.77;13.90;;;;;;;22.44;100.00;99041.00;5138860;27;20054;-82
2023/06/28 02:47:05;;;;;;;23.48;14.30;;;;;;;22.56;100.00;99031.91;5154430;27;20108;-81
2023/06/28 02:49:49;;;;;;;21.00;13.98;;;;;;;22.43;100.00;99049.31;5138577;27;20519;-83
2023/06/28 02:52:33;;;;;;;19.02;13.27;;;;;;;22.47;100.00;99047.72;5137844;27;20098;-83
2023/06/28 02:55:17;;;;;;;19.95;12.65;;;;;;;22.38;100.00;99037.53;5139432;27;20069;-84
2023/06/28 02:58:01;;;;;;;18.98;13.07;;;;;;;22.45;100.00;99037.25;5152301;27;20053;-84
2023/06/28 03:00:46;;;;;;;18.98;13.25;;;;;;;22.36;100.00;99039.69;5154522;27;20095;-85
2023/06/28 03:03:33;;;;;;;21.40;13.30;;;;;;;22.83;100.00;99045.66;5155244;27;20042;-84
2023/06/28 03:06:18;;;;;;;18.55;13.38;;;;;;;22.64;100.00;99040.16;5150748;27;20048;-83
2023/06/28 03:09:02;;;;;;;17.95;12.18;;;;;;;22.57;100.00;99044.97;5153735;27;20046;-83
2023/06/28 03:11:46;;;;;;;18.33;13.30;;;;;;;22.59;100.00;99042.03;5154437;27;20164;-84
2023/06/28 03:14:30;;;;;;;17.85;12.35;;;;;;;22.82;100.00;99037.94;5138992;27;20502;-83
2023/06/28 03:17:14;;;;;;;19.65;11.98;;;;;;;22.79;100.00;99036.59;5139523;27;20062;-84
2023/06/28 03:19:58;;;;;;;20.48;12.45;;;;;;;22.75;100.00;99040.91;5135325;27;20037;-84
2023/06/28 03:22:42;;;;;;;17.02;11.35;;;;;;;22.99;100.00;99034.88;5139483;27;20107;-84
2023/06/28 03:25:26;;;;;;;18.30;10.85;;;;;;;22.97;100.00;99045.84;5140336;27;20057;-84
2023/06/28 03:28:12;;;;;;;17.35;10.95;;;;;;;22.74;100.00;99033.94;5138915;27;20041;-83
2023/06/28 03:30:56;;;;;;;15.98;10.63;;;;;;;23.03;100.00;99033.25;5153428;27;20034;-84
2023/06/28 03:33:40;;;;;;;15.25;10.05;;;;;;;23.03;100.00;99038.59;5134808;27;20045;-83
2023/06/28 03:36:27;;;;;;;13.95;9.90;;;;;;;23.08;100.00;99040.44;5152684;27;20110;-83
2023/06/28 03:39:11;;;;;;;13.48;10.95;;;;;;;23.02;100.00;99033.53;5151793;27;20095;-81
2023/06/28 03:41:55;;;;;;;12.95;9.80;;;;;;;23.04;100.00;99034.06;5137231;27;20107;-84
2023/06/28 03:44:39;;;;;;;13.98;9.60;;;;;;;23.14;100.00;99033.97;5152101;27;20038;-83
2023/06/28 03:47:23;;;;;;;14.00;9.00;;;;;;;23.02;100.00;99025.50;5137943;27;20038;-83
2023/06/28 03:50:09;;;;;;;13.43;9.40;;;;;;;23.09;100.00;99036.69;5152973;27;20030;-83
2023/06/28 03:52:53;;;;;;;15.15;9.10;;;;;;;23.12;100.00;99036.13;5138571;27;20072;-83
2023/06/28 03:55:37;;;;;;;13.60;9.60;;;;;;;23.12;100.00;99041.47;5139487;27;20095;-83
2023/06/28 03:58:21;;;;;;;13.70;9.75;;;;;;;23.10;100.00;99038.28;5148105;27;20122;-83
2023/06/28 04:01:05;;;;;;;15.05;9.32;;;;;;;23.19;100.00;99033.97;5136686;27;20050;-82
2023/06/28 04:03:49;;;;;;;15.88;9.35;;;;;;;23.19;100.00;99035.81;5152656;27;20049;-82
2023/06/28 04:06:33;;;;;;;12.52;9.80;;;;;;;23.20;100.00;99027.53;5151874;27;20099;-82
2023/06/28 04:09:17;;;;;;;14.60;9.63;;;;;;;23.30;100.00;99039.25;5136207;27;20087;-81
2023/06/28 04:12:02;;;;;;;14.98;9.43;;;;;;;23.36;100.00;99043.47;5152091;27;20493;-81
2023/06/28 04:14:46;;;;;;;11.77;8.88;;;;;;;23.27;100.00;99040.59;5151128;27;20045;-81
2023/06/28 04:17:30;;;;;;;11.15;8.75;;;;;;;23.35;100.00;99040.03;5135297;27;20050;-82
2023/06/28 04:20:16;;;;;;;10.95;8.77;;;;;;;23.35;100.00;99040.03;5151458;27;20396;-83
2023/06/28 04:23:00;;;;;;;11.70;8.25;;;;;;;23.41;100.00;99043.47;5152587;27;20452;-81
2023/06/28 04:25:44;;;;;;;12.13;8.85;;;;;;;23.51;100.00;99039.91;5136635;27;20451;-83
2023/06/28 04:28:28;;;;;;;11.77;9.40;;;;;;;23.43;100.00;99037.81;5151984;27;20070;-82
2023/06/28 04:31:13;;;;;;;13.30;9.27;;;;;;;23.47;100.00;99045.03;5152807;27;20041;-83
2023/06/28 04:33:59;;;;;;;14.85;8.65;;;;;;;23.45;100.00;99035.66;5137841;27;20146;-84
2023/06/28 04:36:43;;;;;;;10.43;8.10;;;;;;;23.49;100.00;99040.19;5152013;27;20033;-82
2023/06/28 04:39:27;;;;;;;10.38;8.55;;;;;;;23.56;100.00;99025.66;5136983;27;20045;-84
2023/06/28 04:42:14;;;;;;;13.18;8.98;;;;;;;23.67;100.00;99030.63;5136610;27;20392;-83
2023/06/28 04:45:01;;;;;;;14.18;8.85;;;;;;;23.62;100.00;99035.25;5151922;27;20038;-83
2023/06/28 04:47:46;;;;;;;10.93;8.20;;;;;;;23.72;100.00;99034.38;5137268;27;20066;-82
2023/06/28 04:50:30;;;;;;;11.70;8.18;;;;;;;23.66;100.00;99030.94;5137189;27;20548;-81
2023/06/28 04:53:14;;;;;;;10.20;7.68;;;;;;;23.64;100.00;99038.47;5148137;27;20034;-82
2023/06/28 04:56:00;;;;;;;11.55;8.23;;;;;;;23.75;100.00;99039.16;5152970;27;20071;-82
2023/06/28 04:58:44;;;;;;;11.60;8.80;;;;;;;23.82;100.00;99035.06;5134190;27;20046;-82
2023/06/28 05:01:28;;;;;;;10.73;8.13;;;;;;;23.87;100.00;99042.25;5136509;27;20045;-84
2023/06/28 05:04:12;;;;;;;13.93;8.70;;;;;;;23.91;100.00;99037.13;5137671;27;20040;-84
2023/06/28 05:06:56;;;;;;;12.95;7.95;;;;;;;23.97;100.00;99033.31;5151527;27;20564;-83
2023/06/28 05:09:40;;;;;;;11.13;7.82;;;;;;;24.06;100.00;99037.00;5151768;27;20114;-82
2023/06/28 05:12:24;;;;;;;12.05;7.70;;;;;;;24.10;100.00;99029.22;5151595;27;20254;-84
2023/06/28 05:15:08;;;;;;;10.30;8.23;;;;;;;24.19;100.00;99027.47;5151760;27;20124;-84
2023/06/28 05:17:53;;;;;;;11.25;7.88;;;;;;;24.17;100.00;99024.28;5151785;27;20352;-83
2023/06/28 05:20:37;;;;;;;10.13;7.93;;;;;;;24.27;100.00;99026.06;5150756;27;20053;-85
2023/06/28 05:23:21;;;;;;;11.05;8.07;;;;;;;24.38;100.00;99035.59;5155779;27;20380;-84
2023/06/28 05:26:05;;;;;;;10.07;7.53;;;;;;;24.46;100.00;99036.03;5138946;27;20569;-84
2023/06/28 05:28:49;;;;;;;10.68;7.88;;;;;;;24.57;100.00;99031.34;5155478;27;20034;-83
2023/06/28 05:31:34;;;;;;;11.25;8.63;;;;;;;24.57;100.00;99040.19;5138574;27;20065;-83
2023/06/28 05:34:18;;;;;;;12.15;8.40;;;;;;;24.63;100.00;99022.94;5155890;27;20075;-83
2023/06/28 05:37:02;;;;;;;10.55;8.30;;;;;;;24.68;100.00;99027.44;5154670;27;20049;-84
2023/06/28 05:39:47;;;;;;;9.18;7.30;;;;;;;24.92;100.00;99031.97;5154852;27;20077;-84
2023/06/28 05:42:31;;;;;;;9.95;7.40;;;;;;;25.02;100.00;99020.28;5156491;27;20116;-84
2023/06/28 05:45:15;;;;;;;9.25;7.43;;;;;;;25.01;100.00;99021.38;5155562;27;20175;-83
2023/06/28 05:48:01;;;;;;;10.88;7.60;;;;;;;25.12;100.00;99020.13;5156264;27;20095;-84
2023/06/28 05:50:46;;;;;;;10.88;7.97;;;;;;;25.22;100.00;99021.84;5156540;27;20345;-83
2023/06/28 05:53:29;;;;;;;9.43;6.65;;;;;;;25.34;100.00;99016.84;5155803;27;20165;-83
2023/06/28 05:56:20;;;;;;;9.27;6.95;;;;;;;25.42;100.00;99014.56;5153341;27;20149;-83
2023/06/28 05:59:06;;;;;;;7.97;6.85;;;;;;;25.57;100.00;99021.63;5149674;27;20142;-83
2023/06/28 06:01:50;;;;;;;9.32;7.03;;;;;;;25.64;100.00;99024.72;5139313;27;20057;-84
2023/06/28 06:04:34;;;;;;;10.48;7.18;;;;;;;25.72;100.00;99020.53;5155115;27;20494;-84
2023/06/28 06:07:18;;;;;;;8.55;6.75;;;;;;;25.92;99.90;99022.06;5154331;27;20053;-84
2023/06/28 06:10:02;;;;;;;8.35;7.05;;;;;;;26.03;99.77;99020.78;5138525;27;20529;-86
2023/06/28 06:12:47;;;;;;;8.27;6.55;;;;;;;26.17;99.30;99018.13;5138216;27;20518;-83
2023/06/28 06:15:31;;;;;;;8.63;6.60;;;;;;;26.08;98.41;99033.34;5137667;27;20956;-83
2023/06/28 06:18:15;;;;;;;8.50;6.70;;;;;;;26.30;98.10;99024.59;5154010;27;20049;-83
2023/06/28 06:20:59;;;;;;;6.95;6.25;;;;;;;26.44;97.22;99029.16;5154304;27;20087;-82
2023/06/28 06:23:42;;;;;;;6.45;5.78;;;;;;;26.44;97.23;99039.94;5151303;27;20139;-83
2023/06/28 06:26:27;;;;;;;8.05;6.18;;;;;;;26.29;96.71;99041.03;5153062;27;20564;-82
2023/06/28 06:29:11;;;;;;;7.28;5.70;;;;;;;26.29;97.30;99039.13;5153377;27;20060;-82
2023/06/28 06:31:55;;;;;;;6.82;6.13;;;;;;;26.07;97.84;99037.91;5151682;27;20042;-82
2023/06/28 06:34:39;;;;;;;6.53;5.82;;;;;;;25.73;98.57;99030.19;5137266;27;20086;-82
2023/06/28 06:37:24;;;;;;;6.32;5.45;;;;;;;25.59;98.41;99035.56;5137398;27;20041;-80
2023/06/28 06:40:08;;;;;;;6.30;5.30;;;;;;;25.87;98.25;99030.22;5135149;27;20087;-80
2023/06/28 06:42:52;;;;;;;7.40;5.72;;;;;;;26.10;97.57;99033.84;5135148;27;20038;-80
2023/06/28 06:45:36;;;;;;;6.70;5.20;;;;;;;26.45;97.10;99036.94;5137351;27;20064;-81
2023/06/28 06:48:20;;;;;;;6.03;5.07;;;;;;;26.83;96.18;99033.19;5152405;27;20078;-81
2023/06/28 06:51:05;;;;;;;5.93;5.05;;;;;;;26.45;96.03;99030.75;5153635;27;20034;-83
2023/06/28 06:53:49;;;;;;;4.93;4.43;;;;;;;26.84;94.62;99032.06;5150258;27;20391;-83
2023/06/28 06:56:33;;;;;;;4.60;4.15;;;;;;;27.19;92.67;99032.41;5152528;27;20050;-83
2023/06/28 06:59:19;;;;;;;5.45;3.97;;;;;;;27.02;93.89;99033.06;5139050;27;20095;-87
2023/06/28 07:02:04;;;;;;;5.13;3.92;;;;;;;27.35;92.72;99042.81;5140646;27;20419;-85
2023/06/28 07:04:49;;;;;;;6.82;3.70;;;;;;;27.30;91.79;99037.53;5139260;27;20038;-85
2023/06/28 07:07:36;;;;;;;4.18;3.75;;;;;;;27.17;92.95;99040.00;5151325;27;20542;-85
2023/06/28 07:10:20;;;;;;;3.92;3.60;;;;;;;26.81;93.47;99043.47;5136917;27;20042;-81
2023/06/28 07:13:04;;;;;;;4.65;4.25;;;;;;;27.05;93.22;99037.03;5151444;27;20060;-79
2023/06/28 07:15:48;;;;;;;4.20;3.80;;;;;;;26.99;92.96;99035.56;5135956;27;20046;-80
2023/06/28 07:18:32;;;;;;;4.30;3.90;;;;;;;27.10;92.74;99036.91;5152535;27;20049;-81
2023/06/28 07:21:16;;;;;;;4.25;3.75;;;;;;;27.18;91.99;99040.78;5148417;27;20436;-80
2023/06/28 07:24:00;;;;;;;5.85;4.25;;;;;;;26.84;92.57;99048.22;5136499;27;20045;-80
2023/06/28 07:26:44;;;;;;;4.07;3.42;;;;;;;27.57;90.80;99050.09;5152113;27;20037;-80
2023/06/28 07:29:28;;;;;;;4.28;3.88;;;;;;;27.45;90.42;99045.25;5137034;27;20491;-80
2023/06/28 07:32:12;;;;;;;4.05;3.65;;;;;;;27.54;89.49;99052.63;5150253;27;20048;-80
2023/06/28 07:34:56;;;;;;;4.88;4.03;;;;;;;27.62;89.12;99044.59;5136737;27;20053;-81
2023/06/28 07:37:40;;;;;;;4.38;3.55;;;;;;;27.81;88.45;99046.28;5151728;27;20038;-78
2023/06/28 07:40:24;;;;;;;3.85;3.40;;;;;;;27.97;87.52;99041.28;5149723;27;20041;-82
2023/06/28 07:43:08;;;;;;;4.07;3.40;;;;;;;28.06;86.45;99047.47;5137241;27;20163;-83
2023/06/28 07:45:52;;;;;;;4.15;3.47;;;;;;;27.96;86.99;99047.78;5153125;27;20041;-81
2023/06/28 07:48:37;;;;;;;4.28;3.15;;;;;;;28.03;86.49;99041.94;5153280;27;20057;-82
2023/06/28 07:51:21;;;;;;;6.03;3.15;;;;;;;27.76;86.68;99047.22;5137973;27;20091;-81
2023/06/28 07:54:05;;;;;;;7.10;2.97;;;;;;;27.54;86.22;99053.41;5137796;27;20540;-82
2023/06/28 07:56:49;;;;;;;3.63;3.22;;;;;;;27.82;87.01;99045.19;5138186;27;20037;-83
2023/06/28 07:59:33;;;;;;;3.20;2.85;;;;;;;28.24;85.52;99042.19;5151933;27;20045;-83
2023/06/28 08:02:17;;;;;;;3.17;2.88;;;;;;;28.45;85.41;99042.41;5154896;27;20041;-80
2023/06/28 08:05:01;;;;;;;4.68;3.50;;;;;;;27.99;85.22;99047.16;5151778;27;20452;-82
2023/06/28 08:07:46;;;;;;;4.25;3.13;;;;;;;28.45;84.80;99049.69;5150619;27;20094;-82
2023/06/28 08:10:30;;;;;;;3.33;3.03;;;;;;;28.40;84.42;99050.66;5151326;27;20045;-82
2023/06/28 08:13:14;;;;;;;11.68;4.45;;;;;;;28.86;83.90;99045.03;5134858;27;20042;-82
2023/06/28 08:15:58;;;;;;;4.25;3.13;;;;;;;28.77;82.71;99047.69;5136356;27;20038;-82
2023/06/28 08:18:43;;;;;;;9.25;4.10;;;;;;;28.67;83.22;99042.59;5152217;27;20547;-82
2023/06/28 08:21:27;;;;;;;16.02;5.00;;;;;;;28.81;82.93;99048.69;5137114;27;20499;-83
2023/06/28 08:24:11;;;;;;;16.10;5.30;;;;;;;28.69;82.49;99048.47;5135016;27;20050;-81
2023/06/28 08:26:55;;;;;;;12.15;3.97;;;;;;;28.70;82.58;99048.16;5136575;27;20088;-82
2023/06/28 08:29:39;;;;;;;13.43;4.32;;;;;;;29.28;81.94;99045.34;5137532;27;20449;-82
2023/06/28 08:32:24;;;;;;;4.10;2.70;;;;;;;29.74;81.06;99053.88;5152058;27;20403;-83
2023/06/28 08:35:08;;;;;;;4.40;3.47;;;;;;;29.89;78.69;99043.63;5137166;27;20038;-81
2023/06/28 08:37:52;;;;;;;4.25;2.42;;;;;;;29.94;78.89;99043.44;5137431;27;20045;-82
2023/06/28 08:40:36;;;;;;;10.05;3.00;;;;;;;29.76;78.72;99038.09;5135330;27;20070;-82
2023/06/28 08:43:22;;;;;;;3.58;2.60;;;;;;;29.34;78.20;99037.88;5137613;27;20065;-83
2023/06/28 08:46:07;;;;;;;6.95;2.85;;;;;;;29.38;78.90;99038.81;5136343;27;20498;-83
2023/06/28 08:48:53;;;;;;;5.03;2.78;;;;;;;29.39;78.93;99048.50;5136831;27;20045;-82
2023/06/28 08:51:38;;;;;;;2.60;2.40;;;;;;;30.02;77.93;99044.56;5137602;27;20065;-83
2023/06/28 08:54:27;;;;;;;3.05;2.50;;;;;;;30.11;76.86;99042.59;5151743;27;20044;-81
2023/06/28 08:57:15;;;;;;;3.33;3.03;;;;;;;29.97;77.18;99037.38;5137636;27;20514;-82
2023/06/28 09:00:00;;;;;;;2.65;2.40;;;;;;;29.99;76.37;99040.56;5152788;27;21995;-83
2023/06/28 09:02:44;;;;;;;3.00;2.75;;;;;;;30.25;76.27;99036.94;5153091;27;20046;-82
2023/06/28 09:05:29;;;;;;;4.13;2.70;;;;;;;30.45;75.24;99032.72;5134671;27;20490;-82
2023/06/28 09:08:15;;;;;;;4.35;2.72;;;;;;;30.37;75.21;99030.06;5151551;27;20511;-82
2023/06/28 09:11:00;;;;;;;2.42;2.22;;;;;;;30.29;75.38;99027.09;5151039;27;20159;-83
2023/06/28 09:13:48;;;;;;;2.55;2.30;;;;;;;30.36;75.77;99034.66;5153055;27;20041;-83
2023/06/28 09:16:32;;;;;;;2.65;2.35;;;;;;;30.33;75.17;99025.31;5137088;27;20081;-83
2023/06/28 09:19:17;;;;;;;2.38;2.20;;;;;;;30.66;75.25;99028.44;5136882;27;20041;-84
2023/06/28 09:22:02;;;;;;;4.20;2.40;;;;;;;29.89;75.85;99035.53;5152292;27;20041;-83
2023/06/28 09:24:49;;;;;;;3.00;2.47;;;;;;;30.48;75.27;99023.94;5136799;27;20050;-82
2023/06/28 09:27:32;;;;;;;2.63;2.20;;;;;;;30.71;74.34;99017.44;5150720;27;20045;-80
2023/06/28 09:30:18;;;;;;;3.30;2.47;;;;;;;31.04;74.07;99022.09;5136855;27;20041;-81
2023/06/28 09:33:05;;;;;;;2.78;2.35;;;;;;;31.42;73.26;99014.91;5137415;27;20556;-81
2023/06/28 09:35:57;;;;;;;2.90;2.03;;;;;;;31.07;71.50;99010.59;5135017;27;20037;-82
2023/06/28 09:38:44;;;;;;;3.30;1.85;;;;;;;30.64;72.62;99013.31;5134157;27;20057;-81
2023/06/28 09:41:42;;;;;;;6.25;2.10;;;;;;;30.90;72.75;99020.47;5136903;27;20046;-84
2023/06/28 09:44:30;;;;;;;2.55;2.35;;;;;;;30.57;72.08;99009.53;5136801;27;20516;-83
2023/06/28 09:47:14;;;;;;;3.55;2.22;;;;;;;30.46;71.75;99011.81;5137805;27;20419;-81
2023/06/28 09:50:01;;;;;;;2.63;2.05;;;;;;;30.18;72.70;99012.31;5152741;27;20087;-82
2023/06/28 09:52:45;;;;;;;2.30;2.10;;;;;;;30.20;72.85;99010.88;5136723;27;20037;-82
2023/06/28 09:55:29;;;;;;;2.70;2.20;;;;;;;30.69;71.70;99008.84;5137244;27;20045;-81
2023/06/28 09:58:15;;;;;;;2.53;2.28;;;;;;;30.67;71.53;99000.25;5137686;27;20045;-83
2023/06/28 10:01:01;;;;;;;3.00;2.35;;;;;;;30.04;72.07;99007.91;5136607;27;20081;-83
2023/06/28 10:03:45;;;;;;;2.50;2.28;;;;;;;30.34;72.24;98997.09;5136690;27;20067;-82
2023/06/28 10:06:33;;;;;;;2.50;2.10;;;;;;;29.94;72.00;99002.88;5136385;27;20037;-86
2023/06/28 10:09:21;;;;;;;5.20;2.42;;;;;;;29.95;71.87;98990.13;5155649;27;20064;-85
2023/06/28 10:12:14;;;;;;;3.55;2.10;;;;;;;29.98;72.47;98995.69;5140676;27;20106;-85
2023/06/28 10:15:10;;;;;;;2.50;2.30;;;;;;;30.17;71.73;99006.13;5137550;27;20041;-86
2023/06/28 10:17:55;;;;;;;2.30;2.10;;;;;;;30.86;71.72;99000.59;5155284;27;20038;-85
2023/06/28 10:20:41;;;;;;;3.08;2.03;;;;;;;31.84;68.82;99003.13;5154540;27;20379;-86
2023/06/28 10:23:26;;;;;;;2.20;2.00;;;;;;;31.54;67.92;99011.44;5154963;27;20093;-85
2023/06/28 10:26:12;;;;;;;3.72;2.25;;;;;;;32.42;67.10;98999.47;5138185;27;20037;-87
2023/06/28 10:28:58;;;;;;;3.55;2.10;;;;;;;32.89;66.79;99001.66;5138597;27;20506;-85
2023/06/28 10:31:42;;;;;;;2.90;2.40;;;;;;;33.18;63.97;98996.19;5138883;27;20087;-85
2023/06/28 10:34:27;;;;;;;3.58;2.50;;;;;;;32.08;64.67;98996.91;5135913;27;20038;-86
2023/06/28 10:37:12;;;;;;;3.50;3.20;;;;;;;32.84;64.74;98996.44;5139114;27;20495;-86
2023/06/28 10:39:56;;;;;;;4.57;2.63;;;;;;;32.69;63.77;98994.44;5138300;27;20091;-87
2023/06/28 10:42:40;;;;;;;3.00;2.70;;;;;;;32.88;63.74;98991.91;5137837;27;20759;-86
2023/06/28 10:45:37;;;;;;;2.65;2.45;;;;;;;32.73;63.28;99000.75;5138530;27;20046;-87
2023/06/28 10:48:23;;;;;;;3.35;2.50;;;;;;;32.37;63.30;99000.53;5137599;27;20087;-86
2023/06/28 10:51:07;;;;;;;2.85;2.20;;;;;;;32.63;63.71;99010.19;5137710;27;20085;-86
2023/06/28 10:53:56;;;;;;;3.25;2.58;;;;;;;33.07;63.72;98989.66;5153062;27;20045;-87
2023/06/28 10:56:50;;;;;;;4.05;2.60;;;;;;;32.86;63.97;98983.28;5154005;27;20034;-86
2023/06/28 10:59:41;;;;;;;2.63;2.42;;;;;;;32.87;63.90;99001.19;5135919;27;20054;-87
2023/06/28 11:02:51;;;;;;;3.50;2.50;;;;;;;32.68;63.62;98998.31;5153712;27;20129;-85
2023/06/28 11:05:45;;;;;;;2.88;2.60;;;;;;;32.85;62.46;99000.72;5144465;27;20029;-86
2023/06/28 11:08:42;;;;;;;3.75;2.45;;;;;;;33.21;62.57;99000.13;5138455;27;20049;-87
2023/06/28 11:11:36;;;;;;;2.35;2.15;;;;;;;33.42;62.30;98997.97;5138568;27;20495;-88
2023/06/28 11:14:23;;;;;;;4.28;2.70;;;;;;;33.60;62.74;98995.72;5137508;27;20541;-89
2023/06/28 11:17:13;;;;;;;4.43;2.40;;;;;;;34.01;61.30;98994.75;5139629;27;20061;-89
2023/06/28 11:20:10;;;;;;;2.75;2.55;;;;;;;34.24;60.03;98989.44;5137299;27;20093;-87
2023/06/28 11:22:54;;;;;;;3.63;2.30;;;;;;;34.19;60.62;98989.69;5153457;27;20049;-87
2023/06/28 11:25:40;;;;;;;2.47;2.28;;;;;;;33.98;61.37;98992.75;5137695;27;20073;-87
2023/06/28 11:28:28;;;;;;;2.42;2.22;;;;;;;34.31;60.75;98995.03;5153785;27;20090;-87
2023/06/28 11:31:24;;;;;;;3.15;2.60;;;;;;;34.32;60.33;98985.72;5139768;27;20460;-88
2023/06/28 11:34:12;;;;;;;5.72;2.42;;;;;;;33.64;61.37;98989.56;5141253;27;20041;-88
2023/06/28 11:36:57;;;;;;;2.70;2.50;;;;;;;33.73;60.32;98982.81;5137399;27;20038;-87
2023/06/28 11:39:44;;;;;;;3.63;2.63;;;;;;;34.07;59.84;98987.13;5138298;27;20499;-87
2023/06/28 11:42:28;;;;;;;3.65;2.33;;;;;;;33.80;59.75;98995.00;5138239;27;20045;-88
2023/06/28 11:45:20;;;;;;;2.50;2.25;;;;;;;34.11;59.42;98990.69;5152070;27;20129;-85
2023/06/28 11:48:04;;;;;;;4.82;2.72;;;;;;;34.23;58.75;98990.59;5137127;27;20518;-85
2023/06/28 11:51:04;;;;;;;4.15;2.60;;;;;;;34.48;57.17;98984.88;5154222;27;20091;-86
2023/06/28 11:53:51;;;;;;;2.78;2.30;;;;;;;34.49;58.17;98972.84;5151980;27;20453;-86
2023/06/28 11:56:38;;;;;;;3.30;2.60;;;;;;;33.87;57.79;98992.47;5137974;27;20127;-88
2023/06/28 11:59:24;;;;;;;3.13;2.30;;;;;;;33.34;59.29;98982.59;5153600;27;20042;-86
2023/06/28 12:02:08;;;;;;;3.13;2.50;;;;;;;32.32;60.76;98995.28;5153779;27;20143;-87
2023/06/28 12:04:58;;;;;;;3.72;2.45;;;;;;;32.47;62.04;98983.75;5153511;27;21630;-88
2023/06/28 12:07:44;;;;;;;6.15;2.30;;;;;;;32.70;60.09;98990.59;5152608;27;20038;-88
2023/06/28 12:10:34;;;;;;;3.70;2.30;;;;;;;32.21;60.93;98984.09;5153071;27;20038;-86
2023/06/28 12:13:22;;;;;;;3.38;2.42;;;;;;;32.87;59.99;98987.59;5152697;27;20037;-87
2023/06/28 12:16:25;;;;;;;3.80;2.67;;;;;;;32.99;59.26;98983.25;5153405;27;20058;-88
2023/06/28 12:19:09;;;;;;;3.40;2.83;;;;;;;32.24;59.92;98988.06;5153063;27;20060;-87
2023/06/28 12:21:54;;;;;;;3.10;2.80;;;;;;;32.29;60.60;98985.09;5152651;27;20085;-87
2023/06/28 12:24:38;;;;;;;3.15;2.80;;;;;;;32.77;60.94;98974.47;5153363;27;20045;-87
2023/06/28 12:27:22;;;;;;;2.95;2.67;;;;;;;33.14;60.44;98979.00;5151206;27;20498;-89
2023/06/28 12:30:15;;;;;;;3.03;2.67;;;;;;;32.77;59.69;98971.75;5136537;27;20147;-88
2023/06/28 12:33:05;;;;;;;2.92;2.63;;;;;;;32.12;59.71;98970.66;5153027;27;20053;-89
2023/06/28 12:35:49;;;;;;;2.72;2.53;;;;;;;31.05;61.29;98974.88;5152129;27;20042;-87
2023/06/28 12:38:33;;;;;;;2.65;2.42;;;;;;;31.36;61.83;98986.44;5152033;27;20050;-87
2023/06/28 12:41:18;;;;;;;2.78;2.25;;;;;;;31.56;61.37;98982.03;5136189;27;20106;-90
2023/06/28 12:44:02;;;;;;;4.70;2.38;;;;;;;31.57;61.86;98972.78;5151287;27;20411;-88
2023/06/28 12:46:46;;;;;;;5.80;2.33;;;;;;;31.74;62.90;98975.28;5151643;27;20038;-87
2023/06/28 12:49:36;;;;;;;3.05;2.70;;;;;;;31.44;63.19;98972.75;5151745;27;20399;-89